createdAt,value
2018-05-16T00:02:25.658Z,98630.64
2018-05-16T00:04:55.321Z,98635.04
2018-05-16T00:07:23.700Z,98628.05
2018-05-16T00:09:51.937Z,98625.38
2018-05-16T00:12:20.243Z,98620.75
2018-05-16T00:14:48.531Z,98626.09
2018-05-16T00:17:16.804Z,98618.91
2018-05-16T00:19:45.098Z,98614.84
2018-05-16T00:22:13.375Z,98617.45
2018-05-16T00:24:41.671Z,98612.43
2018-05-16T00:27:09.973Z,98604.34
2018-05-16T00:29:38.310Z,98605.50
2018-05-16T00:32:06.537Z,98601.73
2018-05-16T00:34:35.027Z,98599.76
2018-05-16T00:37:04.288Z,98586.25
2018-05-16T00:39:32.666Z,98596.78
2018-05-16T00:42:01.267Z,98597.31
2018-05-16T00:44:29.554Z,98602.25
2018-05-16T00:46:57.842Z,98607.24
2018-05-16T00:49:26.186Z,98602.82
2018-05-16T00:51:54.499Z,98609.89
2018-05-16T00:54:22.766Z,98612.13
2018-05-16T00:56:51.122Z,98606.16
2018-05-16T00:59:19.358Z,98614.45
2018-05-16T01:01:47.679Z,98615.41
2018-05-16T01:04:16.006Z,98600.84
2018-05-16T01:06:44.383Z,98617.91
2018-05-16T01:09:12.637Z,98615.83
2018-05-16T01:11:40.943Z,98615.63
2018-05-16T01:14:09.221Z,98607.86
2018-05-16T01:16:37.535Z,98611.19
2018-05-16T01:19:05.849Z,98610.47
2018-05-16T01:21:34.174Z,98615.01
2018-05-16T01:24:02.475Z,98613.52
2018-05-16T01:26:30.808Z,98617.47
2018-05-16T01:28:59.085Z,98614.97
2018-05-16T01:31:27.386Z,98617.39
2018-05-16T01:33:55.652Z,98614.33
2018-05-16T01:36:24.918Z,98613.23
2018-05-16T01:38:53.218Z,98613.86
2018-05-16T01:41:21.502Z,98612.92
2018-05-16T01:43:50.695Z,98608.78
2018-05-16T01:46:18.973Z,98613.41
2018-05-16T01:51:49.528Z,98626.20
2018-05-16T01:54:17.905Z,98628.32
2018-05-16T01:56:47.115Z,98634.27
2018-05-16T01:59:15.435Z,98633.16
2018-05-16T02:01:43.706Z,98627.88
2018-05-16T02:04:12.019Z,98631.05
2018-05-16T02:06:40.295Z,98624.57
2018-05-16T02:09:08.602Z,98631.17
2018-05-16T02:11:36.892Z,98616.11
2018-05-16T02:14:05.741Z,98631.17
2018-05-16T02:16:34.016Z,98622.54
2018-05-16T02:19:02.347Z,98651.95
2018-05-16T02:21:30.659Z,98656.75
2018-05-16T02:23:58.921Z,98669.94
2018-05-16T02:26:27.221Z,98683.88
2018-05-16T02:28:55.532Z,98696.48
2018-05-16T02:31:23.857Z,98702.74
2018-05-16T02:33:52.158Z,98706.73
2018-05-16T02:36:20.470Z,98709.89
2018-05-16T02:38:48.746Z,98688.37
2018-05-16T02:41:17.058Z,98691.51
2018-05-16T02:43:45.374Z,98681.03
2018-05-16T02:46:13.674Z,98680.72
2018-05-16T02:48:41.966Z,98682.33
2018-05-16T02:51:10.324Z,98681.94
2018-05-16T02:53:38.639Z,98679.92
2018-05-16T02:56:07.854Z,98670.81
2018-05-16T02:58:36.105Z,98652.66
2018-05-16T03:01:04.428Z,98650.42
2018-05-16T03:03:32.711Z,98652.94
2018-05-16T03:06:01.018Z,98651.17
2018-05-16T03:08:29.297Z,98645.29
2018-05-16T03:10:57.594Z,98651.84
2018-05-16T03:13:25.874Z,98667.20
2018-05-16T03:15:54.190Z,98662.63
2018-05-16T03:18:22.517Z,98654.47
2018-05-16T03:20:50.773Z,98654.55
2018-05-16T03:23:19.074Z,98656.02
2018-05-16T03:25:47.337Z,98658.28
2018-05-16T03:28:15.642Z,98658.82
2018-05-16T03:30:43.914Z,98654.26
2018-05-16T03:33:12.245Z,98652.70
2018-05-16T03:35:40.536Z,98651.86
2018-05-16T03:38:08.832Z,98653.94
2018-05-16T03:40:37.093Z,98653.34
2018-05-16T03:43:05.398Z,98641.40
2018-05-16T03:45:33.703Z,98631.84
2018-05-16T03:48:03.136Z,98637.39
2018-05-16T03:50:31.426Z,98634.14
2018-05-16T03:52:59.714Z,98636.36
2018-05-16T03:55:27.999Z,98625.45
2018-05-16T04:01:07.054Z,98620.66
2018-05-16T04:03:47.742Z,98615.41
2018-05-16T04:06:16.010Z,98610.98
2018-05-16T04:08:44.375Z,98600.07
2018-05-16T04:11:12.668Z,98611.17
2018-05-16T04:13:41.235Z,98599.59
2018-05-16T04:16:09.502Z,98621.48
2018-05-16T04:18:37.792Z,98614.80
2018-05-16T04:21:06.099Z,98604.91
2018-05-16T04:23:34.811Z,98603.38
2018-05-16T04:26:03.154Z,98602.61
2018-05-16T04:28:31.474Z,98597.25
2018-05-16T04:30:59.807Z,98596.52
2018-05-16T04:33:28.119Z,98591.34
2018-05-16T04:35:56.471Z,98593.91
2018-05-16T04:38:24.770Z,98591.56
2018-05-16T04:40:53.105Z,98589.46
2018-05-16T04:43:21.395Z,98582.65
2018-05-16T04:45:49.966Z,98587.58
2018-05-16T04:48:18.223Z,98600.89
2018-05-16T04:50:46.790Z,98602.34
2018-05-16T04:53:15.109Z,98590.41
2018-05-16T04:55:43.467Z,98588.16
2018-05-16T04:58:11.754Z,98596.95
2018-05-16T05:00:40.095Z,98595.67
2018-05-16T05:03:08.401Z,98595.05
2018-05-16T05:05:36.956Z,98592.53
2018-05-16T05:08:05.566Z,98604.28
2018-05-16T05:10:33.858Z,98599.84
2018-05-16T05:13:02.197Z,98606.98
2018-05-16T05:15:30.467Z,98606.22
2018-05-16T05:17:58.751Z,98606.31
2018-05-16T05:20:27.873Z,98607.41
2018-05-16T05:22:56.177Z,98616.86
2018-05-16T05:25:24.541Z,98604.48
2018-05-16T05:27:52.910Z,98610.16
2018-05-16T05:30:21.312Z,98619.12
2018-05-16T05:32:49.575Z,98619.07
2018-05-16T05:35:17.880Z,98626.16
2018-05-16T05:37:46.220Z,98627.77
2018-05-16T05:40:14.509Z,98595.72
2018-05-16T05:42:42.865Z,98622.22
2018-05-16T05:45:11.274Z,98632.45
2018-05-16T05:47:39.601Z,98626.52
2018-05-16T05:50:07.890Z,98626.25
2018-05-16T05:52:36.253Z,98624.66
2018-05-16T05:55:04.653Z,98637.67
2018-05-16T05:57:33.023Z,98617.79
2018-05-16T06:00:01.674Z,98609.59
2018-05-16T06:02:34.950Z,98633.02
2018-05-16T06:05:03.642Z,98633.30
2018-05-16T06:07:32.165Z,98629.47
2018-05-16T06:10:00.459Z,98629.81
2018-05-16T06:12:30.694Z,98637.11
2018-05-16T06:14:58.978Z,98640.06
2018-05-16T06:17:27.261Z,98636.73
2018-05-16T06:19:55.632Z,98646.73
2018-05-16T06:22:24.238Z,98648.40
2018-05-16T06:24:52.540Z,98648.41
2018-05-16T06:27:20.904Z,98646.43
2018-05-16T06:29:49.302Z,98650.88
2018-05-16T06:32:17.548Z,98649.06
2018-05-16T06:34:45.851Z,98656.88
2018-05-16T06:37:14.173Z,98645.23
2018-05-16T06:39:42.612Z,98642.55
2018-05-16T06:42:10.966Z,98642.27
2018-05-16T06:44:39.298Z,98639.83
2018-05-16T06:47:07.612Z,98641.70
2018-05-16T06:49:35.993Z,98650.11
2018-05-16T06:52:05.039Z,98638.16
2018-05-16T06:54:33.394Z,98658.64
2018-05-16T06:57:01.696Z,98665.17
2018-05-16T06:59:29.971Z,98663.21
2018-05-16T07:01:58.314Z,98661.80
2018-05-16T07:04:26.612Z,98660.60
2018-05-16T07:06:54.957Z,98668.44
2018-05-16T07:09:23.236Z,98666.78
2018-05-16T07:11:51.570Z,98671.75
2018-05-16T07:14:19.849Z,98670.02
2018-05-16T07:16:48.194Z,98673.00
2018-05-16T07:19:16.471Z,98677.22
2018-05-16T07:21:44.790Z,98677.28
2018-05-16T07:24:13.062Z,98671.41
2018-05-16T07:26:41.375Z,98677.81
2018-05-16T07:29:09.671Z,98686.16
2018-05-16T07:31:37.994Z,98689.33
2018-05-16T07:34:06.276Z,98683.77
2018-05-16T07:36:34.582Z,98687.77
2018-05-16T07:39:02.882Z,98690.03
2018-05-16T07:41:31.177Z,98693.58
2018-05-16T07:44:00.326Z,98695.79
2018-05-16T07:46:28.608Z,98687.94
2018-05-16T07:48:56.911Z,98695.95
2018-05-16T07:51:26.920Z,98692.95
2018-05-16T07:53:55.288Z,98693.27
2018-05-16T07:56:23.657Z,98693.41
2018-05-16T07:58:51.998Z,98695.45
2018-05-16T08:01:20.268Z,98705.94
2018-05-16T08:03:48.594Z,98707.31
2018-05-16T08:06:16.879Z,98703.84
2018-05-16T08:08:45.247Z,98705.20
2018-05-16T08:11:13.543Z,98701.38
2018-05-16T08:13:41.953Z,98697.52
2018-05-16T08:16:10.261Z,98689.07
2018-05-16T08:18:38.568Z,98696.19
2018-05-16T08:21:06.855Z,98701.69
2018-05-16T08:23:35.165Z,98700.75
2018-05-16T08:26:03.431Z,98710.30
2018-05-16T08:28:31.709Z,98711.22
2018-05-16T08:31:00.097Z,98713.13
2018-05-16T08:33:28.371Z,98723.42
2018-05-16T08:35:56.680Z,98728.75
2018-05-16T08:38:24.954Z,98713.39
2018-05-16T08:40:53.273Z,98728.55
2018-05-16T08:43:21.546Z,98728.10
2018-05-16T08:45:49.941Z,98728.37
2018-05-16T08:48:18.231Z,98735.14
2018-05-16T08:50:46.522Z,98722.13
2018-05-16T08:53:14.893Z,98708.89
2018-05-16T08:55:43.203Z,98731.29
2018-05-16T08:58:12.142Z,98734.96
2018-05-16T09:00:40.515Z,98739.42
2018-05-16T09:03:08.810Z,98743.77
2018-05-16T09:05:37.178Z,98740.89
2018-05-16T09:08:05.444Z,98737.20
2018-05-16T09:10:33.790Z,98736.89
2018-05-16T09:13:02.533Z,98737.11
2018-05-16T09:15:30.852Z,98738.53
2018-05-16T09:17:59.178Z,98748.66
2018-05-16T09:20:27.449Z,98754.05
2018-05-16T09:22:55.958Z,98748.00
2018-05-16T09:25:24.425Z,98755.30
2018-05-16T09:27:52.782Z,98755.23
2018-05-16T09:30:21.098Z,98761.59
2018-05-16T09:32:49.415Z,98774.92
2018-05-16T09:35:17.718Z,98767.73
2018-05-16T09:37:46.021Z,98765.05
2018-05-16T09:40:14.514Z,98762.44
2018-05-16T09:42:42.698Z,98769.39
2018-05-16T09:45:11.004Z,98763.67
2018-05-16T09:47:40.074Z,98728.96
2018-05-16T09:50:08.342Z,98750.47
2018-05-16T09:52:36.706Z,98757.31
2018-05-16T09:55:05.266Z,98757.22
2018-05-16T09:57:33.593Z,98757.50
2018-05-16T10:00:01.928Z,98757.84
2018-05-16T10:02:30.196Z,98771.38
2018-05-16T10:04:58.579Z,98772.56
2018-05-16T10:07:26.953Z,98760.83
2018-05-16T10:09:55.521Z,98776.41
2018-05-16T10:12:23.938Z,98774.30
2018-05-16T10:14:52.214Z,98775.64
2018-05-16T10:17:20.551Z,98782.61
2018-05-16T10:19:48.858Z,98781.00
2018-05-16T10:22:17.177Z,98782.66
2018-05-16T10:24:48.961Z,98777.77
2018-05-16T10:27:17.286Z,98779.72
2018-05-16T10:29:45.598Z,98775.98
2018-05-16T10:32:13.899Z,98781.52
2018-05-16T10:34:42.219Z,98782.41
2018-05-16T10:37:10.489Z,98783.97
2018-05-16T10:39:39.728Z,98774.53
2018-05-16T10:42:09.032Z,98763.52
2018-05-16T10:44:37.323Z,98764.21
2018-05-16T10:47:05.603Z,98770.22
2018-05-16T10:49:33.944Z,98778.62
2018-05-16T10:52:02.523Z,98772.85
2018-05-16T10:54:30.880Z,98778.19
2018-05-16T10:56:59.223Z,98767.41
2018-05-16T10:59:27.537Z,98767.99
2018-05-16T11:01:55.832Z,98747.11
2018-05-16T11:04:24.111Z,98754.47
2018-05-16T11:06:52.399Z,98766.67
2018-05-16T11:09:20.728Z,98769.36
2018-05-16T11:11:49.037Z,98762.58
2018-05-16T11:14:17.314Z,98766.23
2018-05-16T11:16:45.610Z,98759.81
2018-05-16T11:19:13.903Z,98763.88
2018-05-16T11:21:42.895Z,98760.23
2018-05-16T11:24:11.233Z,98763.84
2018-05-16T11:26:39.587Z,98762.58
2018-05-16T11:29:07.890Z,98756.59
2018-05-16T11:31:36.168Z,98768.41
2018-05-16T11:34:04.501Z,98771.47
2018-05-16T11:36:32.827Z,98776.60
2018-05-16T11:39:01.905Z,98770.59
2018-05-16T11:41:30.205Z,98776.61
2018-05-16T11:43:58.513Z,98775.47
2018-05-16T11:46:26.850Z,98783.63
2018-05-16T11:48:55.232Z,98777.61
2018-05-16T11:51:23.517Z,98778.97
2018-05-16T11:53:52.064Z,98773.47
2018-05-16T11:56:20.817Z,98737.83
2018-05-16T11:58:49.307Z,98762.75
2018-05-16T12:01:18.080Z,98767.02
2018-05-16T12:03:46.544Z,98766.82
2018-05-16T12:06:14.918Z,98762.80
2018-05-16T12:08:43.278Z,98758.63
2018-05-16T12:11:11.710Z,98764.37
2018-05-16T12:13:39.978Z,98759.47
2018-05-16T12:16:08.840Z,98765.28
2018-05-16T12:18:37.192Z,98769.51
2018-05-16T12:21:05.496Z,98764.35
2018-05-16T12:23:34.112Z,98759.72
2018-05-16T12:26:02.368Z,98756.92
2018-05-16T12:28:30.737Z,98758.13
2018-05-16T12:31:00.003Z,98753.25
2018-05-16T12:33:28.326Z,98755.70
2018-05-16T12:35:57.582Z,98739.78
2018-05-16T12:38:25.897Z,98753.62
2018-05-16T12:40:54.183Z,98749.27
2018-05-16T12:43:37.208Z,98751.52
2018-05-16T12:46:05.493Z,98749.42
2018-05-16T12:48:33.757Z,98738.33
2018-05-16T12:51:02.046Z,98746.23
2018-05-16T12:53:30.401Z,98745.72
2018-05-16T12:55:58.800Z,98743.46
2018-05-16T12:58:27.089Z,98747.81
2018-05-16T13:00:55.432Z,98751.86
2018-05-16T13:03:23.736Z,98750.42
2018-05-16T13:05:52.152Z,98753.19
2018-05-16T13:08:20.483Z,98750.08
2018-05-16T13:10:48.815Z,98746.12
2018-05-16T13:13:17.123Z,98741.16
2018-05-16T13:15:45.510Z,98747.17
2018-05-16T13:18:13.815Z,98740.62
2018-05-16T13:20:42.181Z,98743.06
2018-05-16T13:23:10.442Z,98751.09
2018-05-16T13:25:38.730Z,98744.97
2018-05-16T13:28:07.128Z,98742.16
2018-05-16T13:30:35.418Z,98752.85
2018-05-16T13:33:03.746Z,98755.20
2018-05-16T13:35:32.277Z,98756.02
2018-05-16T13:38:00.508Z,98756.31
2018-05-16T13:40:28.790Z,98746.23
2018-05-16T13:42:58.011Z,98748.91
2018-05-16T13:45:26.282Z,98741.58
2018-05-16T13:47:54.648Z,98736.37
2018-05-16T13:50:22.942Z,98714.16
2018-05-16T13:52:51.325Z,98727.23
2018-05-16T13:55:19.711Z,98730.59
2018-05-16T13:57:48.128Z,98729.69
2018-05-16T14:00:16.792Z,98736.41
2018-05-16T14:02:45.040Z,98727.57
2018-05-16T14:05:13.389Z,98724.91
2018-05-16T14:07:41.681Z,98722.59
2018-05-16T14:10:09.988Z,98722.02
2018-05-16T14:12:38.498Z,98719.09
2018-05-16T14:15:06.805Z,98715.20
2018-05-16T14:17:35.271Z,98718.44
2018-05-16T14:20:04.258Z,98712.47
2018-05-16T14:22:32.990Z,98720.30
2018-05-16T14:25:01.413Z,98712.97
2018-05-16T14:27:29.983Z,98711.97
2018-05-16T14:29:58.289Z,98717.02
2018-05-16T14:32:26.786Z,98715.48
2018-05-16T14:34:55.143Z,98719.77
2018-05-16T14:37:23.456Z,98718.33
2018-05-16T14:39:51.748Z,98712.19
2018-05-16T14:42:20.149Z,98714.75
2018-05-16T14:44:48.422Z,98722.77
2018-05-16T14:47:16.780Z,98730.09
2018-05-16T14:49:46.526Z,98723.70
2018-05-16T14:52:14.875Z,98729.95
2018-05-16T14:54:43.133Z,98731.64
2018-05-16T14:57:11.518Z,98734.75
2018-05-16T14:59:39.846Z,98731.58
2018-05-16T15:02:08.156Z,98735.80
2018-05-16T15:04:36.503Z,98737.09
2018-05-16T15:07:04.837Z,98732.33
2018-05-16T15:09:33.159Z,98736.34
2018-05-16T15:12:01.589Z,98725.53
2018-05-16T15:14:29.915Z,98734.54
2018-05-16T15:16:58.201Z,98735.16
2018-05-16T15:19:26.597Z,98729.25
2018-05-16T15:21:54.904Z,98733.08
2018-05-16T15:24:23.221Z,98731.23
2018-05-16T15:26:51.526Z,98731.20
2018-05-16T15:29:19.848Z,98735.55
2018-05-16T15:31:48.142Z,98736.87
2018-05-16T15:34:19.271Z,98747.34
2018-05-16T15:36:47.562Z,98753.09
2018-05-16T15:39:15.946Z,98761.50
2018-05-16T15:41:44.349Z,98758.35
2018-05-16T15:44:12.795Z,98761.03
2018-05-16T15:46:42.091Z,98765.09
2018-05-16T15:49:11.554Z,98760.19
2018-05-16T15:51:39.886Z,98763.84
2018-05-16T15:54:08.170Z,98771.08
2018-05-16T15:56:36.553Z,98760.97
2018-05-16T15:59:05.034Z,98759.21
2018-05-16T16:01:33.319Z,98758.23
2018-05-16T16:04:01.597Z,98759.31
2018-05-16T16:06:31.106Z,98752.85
2018-05-16T16:08:59.384Z,98737.45
2018-05-16T16:11:27.739Z,98753.98
2018-05-16T16:13:56.194Z,98760.45
2018-05-16T16:16:24.468Z,98760.86
2018-05-16T16:18:52.800Z,98768.75
2018-05-16T16:21:21.102Z,98752.28
2018-05-16T16:23:49.373Z,98726.66
2018-05-16T16:26:17.906Z,98752.88
2018-05-16T16:28:46.423Z,98753.11
2018-05-16T16:31:16.234Z,98756.98
2018-05-16T16:33:44.509Z,98759.24
2018-05-16T16:36:13.978Z,98754.98
2018-05-16T16:38:44.328Z,98755.75
2018-05-16T16:41:14.199Z,98758.31
2018-05-16T16:43:42.816Z,98752.63
2018-05-16T16:46:11.781Z,98754.84
2018-05-16T16:48:40.097Z,98752.68
2018-05-16T16:51:08.359Z,98753.25
2018-05-16T16:53:36.777Z,98755.34
2018-05-16T16:56:05.067Z,98756.67
2018-05-16T16:58:33.390Z,98757.86
2018-05-16T17:01:02.153Z,98753.44
2018-05-16T17:03:31.716Z,98749.81
2018-05-16T17:05:59.955Z,98747.61
2018-05-16T17:08:28.263Z,98752.94
2018-05-16T17:10:56.724Z,98751.94
2018-05-16T17:13:25.039Z,98747.75
2018-05-16T17:15:53.361Z,98746.45
2018-05-16T17:18:21.685Z,98750.70
2018-05-16T17:20:50.019Z,98757.64
2018-05-16T17:23:18.312Z,98759.55
2018-05-16T17:25:46.676Z,98772.16
2018-05-16T17:28:14.969Z,98772.05
2018-05-16T17:30:43.364Z,98780.69
2018-05-16T17:33:17.666Z,98788.42
2018-05-16T17:35:46.773Z,98793.66
2018-05-16T17:38:15.304Z,98795.73
2018-05-16T17:40:44.158Z,98799.62
2018-05-16T17:43:12.707Z,98804.59
2018-05-16T17:45:43.609Z,98809.59
2018-05-16T17:48:11.904Z,98807.11
2018-05-16T17:50:40.256Z,98813.34
2018-05-16T17:53:08.699Z,98809.12
2018-05-16T17:55:37.123Z,98809.00
2018-05-16T17:58:05.536Z,98811.78
2018-05-16T18:00:34.271Z,98812.36
2018-05-16T18:03:02.933Z,98811.36
2018-05-16T18:05:31.241Z,98811.48
2018-05-16T18:07:59.675Z,98813.13
2018-05-16T18:10:30.033Z,98814.95
2018-05-16T18:16:27.373Z,98821.45
2018-05-16T18:18:56.076Z,98824.76
2018-05-16T18:21:25.685Z,98833.62
2018-05-16T18:23:56.474Z,98846.53
2018-05-16T18:26:26.610Z,98846.72
2018-05-16T18:28:55.409Z,98852.97
2018-05-16T18:31:23.794Z,98853.38
2018-05-16T18:33:53.604Z,98846.60
2018-05-16T18:36:22.074Z,98853.83
2018-05-16T18:38:50.576Z,98851.72
2018-05-16T18:41:18.907Z,98850.78
2018-05-16T18:43:47.249Z,98862.01
2018-05-16T18:46:15.917Z,98861.88
2018-05-16T18:48:44.310Z,98854.20
2018-05-16T18:51:13.302Z,98853.43
2018-05-16T18:53:42.649Z,98849.89
2018-05-16T18:56:10.965Z,98844.73
2018-05-16T18:58:39.308Z,98844.23
2018-05-16T19:01:09.553Z,98843.02
2018-05-16T19:03:37.936Z,98848.47
2018-05-16T19:06:06.363Z,98844.88
2018-05-16T19:08:34.762Z,98844.80
2018-05-16T19:11:03.179Z,98841.77
2018-05-16T19:13:31.523Z,98851.64
2018-05-16T19:15:59.843Z,98849.44
2018-05-16T19:18:28.135Z,98851.02
2018-05-16T19:20:56.713Z,98857.88
2018-05-16T19:23:25.027Z,98856.36
2018-05-16T19:25:53.436Z,98855.80
2018-05-16T19:28:22.209Z,98872.48
2018-05-16T19:30:50.607Z,98873.53
2018-05-16T19:33:18.914Z,98882.42
2018-05-16T19:35:47.333Z,98888.20
2018-05-16T19:38:15.693Z,98893.36
2018-05-16T19:40:44.130Z,98902.88
2018-05-16T19:43:12.467Z,98911.09
2018-05-16T19:45:40.834Z,98914.14
2018-05-16T19:48:09.145Z,98917.47
2018-05-16T19:50:37.450Z,98917.00
2018-05-16T19:53:05.777Z,98923.73
2018-05-16T19:55:34.542Z,98921.80
2018-05-16T19:58:03.011Z,98922.27
2018-05-16T20:00:31.321Z,98924.95
2018-05-16T20:02:59.723Z,98927.53
2018-05-16T20:05:28.087Z,98930.52
2018-05-16T20:07:56.455Z,98927.70
2018-05-16T20:10:25.018Z,98932.73
2018-05-16T20:12:53.311Z,98929.66
2018-05-16T20:15:21.711Z,98934.07
2018-05-16T20:17:50.026Z,98939.20
2018-05-16T20:20:18.459Z,98936.13
2018-05-16T20:22:46.822Z,98938.88
2018-05-16T20:25:15.192Z,98947.63
2018-05-16T20:27:43.552Z,98949.52
2018-05-16T20:30:11.893Z,98947.95
2018-05-16T20:32:40.190Z,98945.38
2018-05-16T20:35:08.477Z,98948.13
2018-05-16T20:37:36.788Z,98946.32
2018-05-16T20:40:05.080Z,98946.07
2018-05-16T20:42:33.444Z,98948.53
2018-05-16T20:45:01.751Z,98947.88
2018-05-16T20:47:30.101Z,98950.48
2018-05-16T20:49:58.407Z,98948.98
2018-05-16T20:52:26.679Z,98912.72
2018-05-16T20:54:56.714Z,98959.58
2018-05-16T20:57:25.016Z,98959.67
2018-05-16T20:59:54.034Z,98965.10
2018-05-16T21:02:22.314Z,98966.32
2018-05-16T21:04:50.597Z,98960.22
2018-05-16T21:07:18.914Z,98965.77
2018-05-16T21:09:47.572Z,98964.02
2018-05-16T21:12:15.982Z,98967.92
2018-05-16T21:14:44.572Z,98970.63
2018-05-16T21:17:13.473Z,98971.05
2018-05-16T21:19:42.138Z,98966.46
2018-05-16T21:22:12.826Z,98971.44
2018-05-16T21:24:48.305Z,98970.73
2018-05-16T21:27:18.454Z,98970.36
2018-05-16T21:29:47.311Z,98978.34
2018-05-16T21:32:15.934Z,98979.02
2018-05-16T21:34:44.299Z,98982.39
2018-05-16T21:37:12.588Z,98978.84
2018-05-16T21:39:40.994Z,98982.13
2018-05-16T21:42:09.359Z,98983.49
2018-05-16T21:44:37.707Z,98983.98
2018-05-16T21:47:06.084Z,98975.84
2018-05-16T21:49:34.524Z,98978.64
2018-05-16T21:52:02.941Z,98973.32
2018-05-16T21:54:31.275Z,98972.13
2018-05-16T21:56:59.598Z,98975.39
2018-05-16T21:59:27.969Z,98974.70
2018-05-16T22:01:56.520Z,98973.20
2018-05-16T22:04:24.843Z,98975.58
2018-05-16T22:06:53.166Z,98980.64
2018-05-16T22:09:21.591Z,98980.06
2018-05-16T22:11:49.917Z,98976.55
2018-05-16T22:14:18.205Z,98978.78
2018-05-16T22:16:47.406Z,98980.20
2018-05-16T22:19:15.668Z,98977.22
2018-05-16T22:21:44.046Z,98977.59
2018-05-16T22:24:12.576Z,98971.30
2018-05-16T22:26:40.872Z,98965.05
2018-05-16T22:29:09.180Z,98975.05
2018-05-16T22:31:42.984Z,98974.28
2018-05-16T22:34:16.996Z,98974.88
2018-05-16T22:36:51.727Z,98976.42
2018-05-16T22:39:25.799Z,98983.50
2018-05-16T22:41:59.613Z,98982.02
2018-05-16T22:44:28.877Z,98988.23
2018-05-16T22:46:57.179Z,98982.67
2018-05-16T22:49:25.621Z,98983.64
2018-05-16T22:51:53.897Z,98978.61
2018-05-16T22:54:22.221Z,98972.07
2018-05-16T22:56:50.488Z,98973.41
2018-05-16T22:59:18.858Z,98970.05
2018-05-16T23:01:47.147Z,98971.11
2018-05-16T23:04:15.455Z,98972.08
2018-05-16T23:06:43.736Z,98972.25
2018-05-16T23:09:12.071Z,98965.66
2018-05-16T23:11:40.347Z,98972.27
2018-05-16T23:14:09.311Z,98974.88
2018-05-16T23:16:37.650Z,98972.75
2018-05-16T23:19:06.708Z,98979.50
2018-05-16T23:21:35.034Z,98979.79
2018-05-16T23:24:04.362Z,98976.31
2018-05-16T23:26:32.662Z,98972.69
2018-05-16T23:29:00.954Z,98977.75
2018-05-16T23:31:29.267Z,98974.80
2018-05-16T23:33:57.588Z,98970.91
2018-05-16T23:36:25.966Z,98971.50
2018-05-16T23:38:54.257Z,98966.69
2018-05-16T23:41:22.553Z,98973.53
2018-05-16T23:43:50.852Z,98980.64
2018-05-16T23:46:19.844Z,98975.77
2018-05-16T23:48:48.127Z,98978.75
2018-05-16T23:51:16.440Z,98979.92
2018-05-16T23:53:44.715Z,98980.40
2018-05-16T23:56:13.027Z,98988.89
2018-05-16T23:58:41.320Z,98989.98
